createdAt,value
2023-01-23T00:02:11.809Z,55.30
2023-01-23T00:04:40.396Z,59.73
2023-01-23T00:07:08.837Z,53.50
2023-01-23T00:09:37.181Z,54.87
2023-01-23T00:12:06.488Z,61.73
2023-01-23T00:14:34.910Z,57.00
2023-01-23T00:17:03.252Z,57.13
2023-01-23T00:19:33.148Z,56.87
2023-01-23T00:22:02.153Z,58.33
2023-01-23T00:24:30.537Z,54.03
2023-01-23T00:26:58.989Z,56.93
2023-01-23T00:29:27.407Z,67.17
2023-01-23T00:31:55.899Z,63.33
2023-01-23T00:34:24.315Z,61.93
2023-01-23T00:36:54.165Z,54.40
2023-01-23T00:39:25.150Z,66.57
2023-01-23T00:41:53.615Z,57.60
2023-01-23T00:44:21.943Z,62.17
2023-01-23T00:46:55.578Z,65.13
2023-01-23T00:49:27.126Z,67.57
2023-01-23T00:51:57.759Z,54.40
2023-01-23T00:54:26.696Z,64.57
2023-01-23T00:56:55.075Z,66.60
2023-01-23T00:59:24.308Z,65.70
2023-01-23T01:01:52.691Z,68.10
2023-01-23T01:04:21.218Z,64.53
2023-01-23T01:06:49.663Z,54.50
2023-01-23T01:09:19.544Z,60.60
2023-01-23T01:11:47.919Z,63.77
2023-01-23T01:14:17.231Z,66.40
2023-01-23T01:16:48.893Z,58.27
2023-01-23T01:19:19.232Z,65.20
2023-01-23T01:21:47.701Z,68.60
2023-01-23T01:24:16.061Z,63.67
2023-01-23T01:26:45.811Z,60.97
2023-01-23T01:29:14.146Z,63.53
2023-01-23T01:31:44.984Z,63.30
2023-01-23T01:34:14.892Z,60.27
2023-01-23T01:36:43.198Z,62.27
2023-01-23T01:39:11.500Z,61.47
2023-01-23T01:41:40.076Z,65.40
2023-01-23T01:44:14.314Z,64.37
2023-01-23T01:46:42.732Z,67.93
2023-01-23T01:49:14.729Z,64.13
2023-01-23T01:51:47.386Z,64.73
2023-01-23T01:54:28.448Z,67.67
2023-01-23T01:57:01.913Z,61.43
2023-01-23T01:59:38.004Z,72.23
2023-01-23T02:02:10.791Z,71.20
2023-01-23T02:04:43.549Z,70.40
2023-01-23T02:07:18.503Z,74.50
2023-01-23T02:09:47.932Z,70.40
2023-01-23T02:12:16.629Z,67.63
2023-01-23T02:14:46.526Z,65.87
2023-01-23T02:17:15.039Z,75.97
2023-01-23T02:19:51.924Z,62.73
2023-01-23T02:22:38.143Z,76.57
2023-01-23T02:25:14.658Z,63.40
2023-01-23T02:27:44.560Z,62.03
2023-01-23T02:30:14.029Z,77.40
2023-01-23T02:32:43.976Z,60.73
2023-01-23T02:35:15.562Z,66.33
2023-01-23T02:37:47.260Z,60.17
2023-01-23T02:40:16.173Z,60.27
2023-01-23T02:42:48.454Z,68.03
2023-01-23T02:45:19.020Z,57.87
2023-01-23T02:47:48.239Z,59.00
2023-01-23T02:50:18.530Z,68.07
2023-01-23T02:52:47.418Z,62.30
2023-01-23T02:55:15.835Z,65.03
2023-01-23T02:57:46.389Z,61.53
2023-01-23T03:00:20.689Z,73.73
2023-01-23T03:02:50.885Z,60.17
2023-01-23T03:05:20.135Z,60.40
2023-01-23T03:07:48.508Z,57.33
2023-01-23T03:10:17.425Z,54.93
2023-01-23T03:12:48.584Z,58.93
2023-01-23T03:15:17.107Z,62.17
2023-01-23T03:17:45.611Z,59.90
2023-01-23T03:20:15.288Z,56.47
2023-01-23T03:22:44.796Z,68.53
2023-01-23T03:25:13.270Z,61.43
2023-01-23T03:27:42.228Z,59.83
2023-01-23T03:30:13.368Z,56.80
2023-01-23T03:32:42.102Z,53.13
2023-01-23T03:35:14.050Z,54.67
2023-01-23T03:37:42.674Z,47.83
2023-01-23T03:40:35.631Z,49.70
2023-01-23T03:43:05.085Z,48.70
2023-01-23T03:45:36.885Z,45.47
2023-01-23T03:48:05.633Z,60.53
2023-01-23T03:50:34.603Z,53.87
2023-01-23T03:53:03.048Z,53.83
2023-01-23T03:55:31.987Z,59.33
2023-01-23T03:58:00.281Z,53.27
2023-01-23T04:00:31.619Z,54.50
2023-01-23T04:03:07.000Z,53.20
2023-01-23T04:05:35.869Z,52.37
2023-01-23T04:08:04.652Z,52.13
2023-01-23T04:10:33.248Z,50.93
2023-01-23T04:13:05.838Z,53.40
2023-01-23T04:15:34.892Z,56.03
2023-01-23T04:18:07.845Z,51.97
2023-01-23T04:20:36.321Z,50.07
2023-01-23T04:23:04.645Z,69.30
2023-01-23T04:25:33.099Z,59.10
2023-01-23T04:28:01.584Z,47.20
2023-01-23T04:30:30.193Z,45.40
2023-01-23T04:33:02.734Z,53.73
2023-01-23T04:35:32.609Z,48.13
2023-01-23T04:38:01.263Z,59.97
2023-01-23T04:40:30.350Z,51.13
2023-01-23T04:43:01.236Z,51.23
2023-01-23T04:45:37.158Z,55.43
2023-01-23T08:15:13.574Z,39.77
2023-01-23T08:18:39.427Z,44.93
2023-01-23T08:21:07.992Z,38.23
2023-01-23T08:23:36.509Z,44.40
2023-01-23T08:26:07.963Z,45.27
2023-01-23T08:28:36.914Z,44.00
2023-01-23T08:31:09.045Z,48.83
2023-01-23T08:33:38.349Z,44.10
2023-01-23T08:36:11.021Z,43.37
2023-01-23T08:38:39.884Z,43.27
2023-01-23T08:41:09.994Z,42.23
2023-01-23T08:56:44.242Z,37.70
2023-01-23T08:59:12.783Z,39.57
2023-01-23T09:01:41.275Z,41.60
2023-01-23T09:04:09.597Z,40.60
2023-01-23T09:06:38.056Z,43.23
2023-01-23T09:09:06.467Z,40.23
2023-01-23T09:11:34.772Z,41.77
2023-01-23T09:14:04.478Z,40.87
2023-01-23T09:16:33.446Z,35.83
2023-01-23T09:19:01.977Z,38.23
2023-01-23T09:21:30.357Z,35.10
2023-01-23T09:23:58.682Z,36.50
2023-01-23T09:26:26.896Z,33.17
2023-01-23T09:28:56.082Z,35.60
2023-01-23T09:31:25.892Z,34.63
2023-01-23T09:33:54.254Z,33.27
2023-01-23T09:36:37.485Z,35.40
2023-01-23T09:39:09.836Z,33.20
2023-01-23T09:41:41.036Z,31.67
2023-01-23T09:44:15.200Z,31.00
2023-01-23T09:46:49.856Z,29.10
2023-01-23T09:49:24.232Z,31.70
2023-01-23T09:51:57.778Z,28.73
2023-01-23T09:54:37.643Z,31.93
2023-01-23T09:57:13.013Z,29.60
2023-01-23T09:59:58.665Z,31.00
2023-01-23T10:02:30.576Z,30.10
2023-01-23T10:05:02.675Z,31.33
2023-01-23T10:07:58.540Z,32.80
2023-01-23T10:10:51.553Z,28.73
2023-01-23T10:13:24.248Z,29.80
2023-01-23T10:16:09.970Z,30.57
2023-01-23T10:18:49.457Z,28.50
2023-01-23T10:21:25.868Z,35.07
2023-01-23T10:24:04.804Z,31.13
2023-01-23T10:26:39.673Z,33.63
2023-01-23T10:29:15.786Z,32.03
2023-01-23T10:31:49.453Z,35.60
2023-01-23T10:34:23.892Z,35.83
2023-01-23T10:37:06.817Z,35.80
2023-01-23T10:39:46.835Z,35.50
2023-01-23T10:42:15.503Z,33.40
2023-01-23T10:44:43.940Z,34.40
2023-01-23T10:47:21.266Z,37.97
2023-01-23T10:49:51.094Z,39.93
2023-01-23T10:52:38.095Z,36.27
2023-01-23T10:55:25.593Z,36.50
2023-01-23T10:58:07.909Z,37.00
2023-01-23T11:00:51.783Z,38.07
2023-01-23T11:03:29.682Z,37.77
2023-01-23T11:06:05.168Z,39.10
2023-01-23T11:08:36.413Z,41.63
2023-01-23T11:11:23.189Z,41.47
2023-01-23T11:14:05.223Z,42.63
2023-01-23T11:16:34.933Z,41.60
2023-01-23T11:19:17.409Z,42.33
2023-01-23T11:21:56.305Z,45.13
2023-01-23T11:24:40.340Z,42.37
2023-01-23T11:27:20.377Z,41.27
2023-01-23T11:30:23.629Z,40.40
2023-01-23T11:32:58.653Z,39.73
2023-01-23T11:35:43.803Z,40.97
2023-01-23T11:38:27.275Z,37.80
2023-01-23T11:40:58.638Z,37.80
2023-01-23T11:43:27.126Z,35.10
2023-01-23T11:46:21.391Z,34.53
2023-01-23T11:59:33.613Z,27.70
2023-01-23T12:06:44.058Z,24.57
2023-01-23T12:09:16.023Z,23.73
2023-01-23T12:12:05.075Z,24.43
2023-01-23T12:24:41.045Z,21.27
2023-01-23T12:27:19.602Z,22.23
2023-01-23T12:30:25.532Z,24.23
2023-01-23T12:33:04.604Z,21.70
2023-01-23T12:35:49.129Z,23.53
2023-01-23T12:38:27.528Z,19.97
2023-01-23T12:41:09.484Z,24.40
2023-01-23T12:43:45.450Z,21.30
2023-01-23T12:46:19.128Z,21.00
2023-01-23T12:48:55.389Z,19.57
2023-01-23T12:51:29.406Z,20.70
2023-01-23T12:54:02.080Z,18.97
2023-01-23T12:56:35.298Z,18.93
2023-01-23T12:59:14.390Z,18.07
2023-01-23T13:02:01.961Z,22.53
2023-01-23T13:04:47.889Z,17.93
2023-01-23T13:07:27.760Z,19.83
2023-01-23T13:10:23.269Z,22.20
2023-01-23T13:12:57.478Z,20.57
2023-01-23T13:15:41.064Z,20.13
2023-01-23T13:18:24.192Z,17.17
2023-01-23T13:21:16.174Z,21.80
2023-01-23T13:23:44.878Z,24.73
2023-01-23T13:26:37.478Z,26.50
2023-01-23T13:29:48.095Z,21.77
2023-01-23T13:32:23.177Z,18.93
2023-01-23T13:34:51.891Z,18.37
2023-01-23T13:37:54.219Z,20.10
2023-01-23T13:40:25.371Z,18.77
2023-01-23T13:42:53.846Z,19.80
2023-01-23T13:45:29.671Z,19.23
2023-01-23T14:24:46.409Z,17.60
2023-01-23T14:27:29.414Z,20.03
2023-01-23T14:29:59.712Z,17.73
2023-01-23T14:32:31.240Z,16.10
2023-01-23T14:35:01.611Z,14.00
2023-01-23T14:37:32.096Z,17.90
2023-01-23T14:40:09.746Z,15.60
2023-01-23T14:42:41.162Z,16.93
2023-01-23T14:45:14.020Z,14.73
2023-01-23T14:47:48.975Z,21.30
2023-01-23T14:50:27.367Z,21.60
2023-01-23T14:52:59.388Z,16.67
2023-01-23T14:55:30.315Z,15.50
2023-01-23T14:58:01.607Z,18.03
2023-01-23T15:00:30.647Z,17.03
2023-01-23T15:02:59.120Z,20.37
2023-01-23T15:05:29.738Z,21.30
2023-01-23T15:07:59.761Z,20.80
2023-01-23T15:10:30.845Z,18.50
2023-01-23T15:13:02.406Z,19.60
2023-01-23T15:15:32.589Z,20.43
2023-01-23T15:18:02.345Z,16.80
2023-01-23T15:20:38.397Z,23.63
2023-01-23T15:23:28.347Z,18.40
2023-01-23T15:26:23.580Z,17.80
2023-01-23T15:28:53.741Z,17.57
2023-01-23T15:31:26.411Z,19.93
2023-01-23T15:33:55.478Z,17.70
2023-01-23T15:36:28.851Z,21.13
2023-01-23T15:39:00.216Z,17.97
2023-01-23T15:41:44.943Z,17.57
2023-01-23T15:44:15.696Z,18.13
2023-01-23T15:46:44.312Z,18.80
2023-01-23T15:49:24.525Z,17.90
2023-01-23T15:51:56.787Z,19.17
2023-01-23T15:54:29.972Z,19.03
2023-01-23T15:57:07.098Z,33.60
2023-01-23T15:59:37.687Z,26.13
2023-01-23T16:02:08.227Z,27.37
2023-01-23T16:04:39.557Z,30.20
2023-01-23T16:07:25.264Z,27.13
2023-01-23T16:09:55.322Z,24.20
2023-01-23T16:12:29.552Z,24.17
2023-01-23T16:14:58.627Z,24.93
2023-01-23T16:17:27.301Z,25.10
2023-01-23T16:19:55.990Z,25.80
2023-01-23T16:22:29.549Z,24.57
2023-01-23T16:24:59.112Z,25.90
2023-01-23T16:27:28.383Z,23.83
2023-01-23T16:29:57.241Z,26.07
2023-01-23T16:32:26.308Z,26.50
2023-01-23T16:34:54.988Z,26.33
2023-01-23T16:37:23.399Z,26.70
2023-01-23T16:39:53.293Z,30.43
2023-01-23T16:42:25.068Z,29.97
2023-01-23T16:44:53.637Z,27.83
2023-01-23T16:47:22.116Z,32.33
2023-01-23T16:49:52.974Z,30.37
2023-01-23T16:52:25.568Z,30.37
2023-01-23T16:54:56.604Z,32.73
2023-01-23T16:57:25.970Z,31.33
2023-01-23T16:59:56.509Z,35.17
2023-01-23T17:02:30.480Z,34.93
2023-01-23T17:04:59.076Z,31.20
2023-01-23T17:07:27.401Z,31.47
2023-01-23T17:09:57.291Z,31.80
2023-01-23T17:12:30.238Z,30.47
2023-01-23T17:14:58.950Z,31.50
2023-01-23T17:17:32.482Z,25.73
2023-01-23T17:20:02.333Z,29.37
2023-01-23T17:22:35.121Z,29.70
2023-01-23T17:25:05.604Z,31.47
2023-01-23T17:27:44.303Z,77.27
2023-01-23T17:30:16.851Z,93.17
2023-01-23T17:32:48.431Z,94.70
2023-01-23T17:35:24.423Z,50.10
2023-01-23T17:37:53.431Z,94.83
2023-01-23T17:40:23.444Z,51.53
2023-01-23T17:42:53.873Z,40.70
2023-01-23T17:45:25.444Z,41.87
2023-01-23T17:47:56.175Z,56.73
2023-01-23T17:50:26.935Z,83.50
2023-01-23T17:52:56.077Z,41.77
2023-01-23T17:55:28.940Z,28.90
2023-01-23T17:57:57.425Z,34.30
2023-01-23T18:00:27.212Z,71.60
2023-01-23T18:02:59.498Z,41.30
2023-01-23T18:05:28.818Z,33.20
2023-01-23T18:07:57.331Z,27.27
2023-01-23T18:10:29.850Z,29.23
2023-01-23T18:13:07.043Z,23.70
2023-01-23T18:15:41.646Z,24.97
2023-01-23T18:18:24.302Z,25.90
2023-01-23T18:20:54.942Z,27.07
2023-01-23T18:23:24.673Z,23.60
2023-01-23T18:26:03.104Z,28.90
2023-01-23T18:28:37.048Z,28.50
2023-01-23T18:31:13.752Z,25.97
2023-01-23T18:34:08.313Z,25.40
2023-01-23T18:36:48.639Z,26.53
2023-01-23T18:39:35.029Z,27.30
2023-01-23T18:42:16.373Z,24.63
2023-01-23T18:44:53.867Z,27.63
2023-01-23T18:47:22.956Z,25.40
2023-01-23T18:49:51.906Z,26.83
2023-01-23T18:52:25.751Z,27.57
2023-01-23T18:55:03.730Z,26.10
2023-01-23T18:58:03.486Z,25.53
2023-01-23T19:00:39.614Z,28.30
2023-01-23T19:03:14.669Z,40.90
2023-01-23T19:05:44.168Z,26.90
2023-01-23T19:08:28.114Z,27.87
2023-01-23T19:11:01.749Z,28.07
2023-01-23T19:13:43.744Z,31.70
2023-01-23T19:16:18.663Z,30.93
2023-01-23T19:18:48.397Z,27.87
2023-01-23T19:21:23.616Z,30.67
2023-01-23T19:23:59.453Z,28.43
2023-01-23T19:26:30.825Z,33.27
2023-01-23T19:29:19.250Z,33.63
2023-01-23T19:32:04.261Z,32.70
2023-01-23T19:34:33.728Z,33.27
2023-01-23T19:37:02.265Z,32.83
2023-01-23T19:39:33.693Z,34.60
2023-01-23T19:42:02.177Z,38.60
2023-01-23T19:44:33.308Z,36.97
2023-01-23T19:47:03.542Z,47.80
2023-01-23T19:49:32.021Z,43.53
2023-01-23T19:52:00.417Z,55.83
2023-01-23T19:54:29.095Z,61.47
2023-01-23T19:56:57.542Z,42.17
2023-01-23T19:59:27.384Z,35.43
2023-01-23T20:01:57.322Z,38.10
2023-01-23T20:04:25.903Z,34.40
2023-01-23T20:06:55.047Z,32.80
2023-01-23T20:09:23.929Z,41.83
2023-01-23T20:11:52.729Z,35.50
2023-01-23T20:14:22.278Z,35.43
2023-01-23T20:16:50.874Z,30.47
2023-01-23T20:19:20.891Z,28.70
2023-01-23T20:21:49.620Z,27.63
2023-01-23T20:24:18.482Z,28.07
2023-01-23T20:26:47.540Z,28.10
2023-01-23T20:29:16.435Z,26.77
2023-01-23T20:31:45.185Z,27.33
2023-01-23T20:34:14.028Z,26.43
2023-01-23T20:36:44.413Z,28.87
2023-01-23T20:39:13.795Z,25.57
2023-01-23T20:41:42.719Z,27.10
2023-01-23T20:44:11.823Z,26.40
2023-01-23T20:46:40.363Z,27.40
2023-01-23T20:49:09.089Z,27.97
2023-01-23T20:51:37.548Z,29.97
2023-01-23T20:54:06.688Z,30.83
2023-01-23T20:56:35.920Z,30.93
2023-01-23T20:59:19.310Z,34.40
2023-01-23T21:02:06.377Z,32.03
2023-01-23T21:04:36.443Z,32.47
2023-01-23T21:07:06.099Z,34.23
2023-01-23T21:09:36.158Z,37.13
2023-01-23T21:12:04.922Z,37.73
2023-01-23T21:14:33.466Z,36.60
2023-01-23T21:17:01.998Z,34.87
2023-01-23T21:19:30.795Z,35.23
2023-01-23T21:21:59.950Z,37.03
2023-01-23T21:24:28.700Z,36.13
2023-01-23T21:26:58.616Z,35.87
2023-01-23T21:29:27.275Z,37.10
2023-01-23T21:31:57.653Z,36.43
2023-01-23T21:34:27.721Z,34.67
2023-01-23T21:36:56.193Z,38.93
2023-01-23T21:39:24.650Z,38.10
2023-01-23T21:41:53.173Z,37.70
2023-01-23T21:44:23.199Z,33.73
2023-01-23T21:46:51.656Z,35.30
2023-01-23T21:49:20.274Z,39.50
2023-01-23T21:51:48.962Z,37.53
2023-01-23T21:54:17.651Z,32.00
2023-01-23T21:56:46.521Z,33.77
2023-01-23T21:59:15.576Z,37.10
2023-01-23T22:01:45.791Z,30.97
2023-01-23T22:04:18.313Z,34.20
2023-01-23T22:06:47.678Z,35.67
2023-01-23T22:09:18.592Z,36.93
2023-01-23T22:11:48.579Z,37.73
2023-01-23T22:14:17.635Z,37.53
2023-01-23T22:16:51.360Z,37.40
2023-01-23T22:19:24.707Z,34.10
2023-01-23T22:21:54.371Z,38.63
2023-01-23T22:24:22.901Z,34.77
2023-01-23T22:26:51.485Z,32.77
2023-01-23T22:29:19.942Z,35.07
2023-01-23T22:31:48.601Z,33.97
2023-01-23T22:34:18.517Z,36.60
2023-01-23T22:36:46.976Z,36.57
2023-01-23T22:39:17.046Z,36.27
2023-01-23T22:41:46.459Z,34.27
2023-01-23T22:44:15.311Z,37.23
2023-01-23T22:46:43.880Z,34.17
2023-01-23T22:49:12.620Z,33.50
2023-01-23T22:51:42.634Z,33.50
2023-01-23T22:54:11.200Z,36.57
2023-01-23T22:56:40.068Z,29.30
2023-01-23T22:59:08.460Z,38.63
2023-01-23T23:01:37.541Z,32.47
2023-01-23T23:04:06.376Z,33.20
2023-01-23T23:06:34.793Z,33.67
2023-01-23T23:09:05.513Z,34.17
2023-01-23T23:11:35.992Z,35.60
2023-01-23T23:14:04.644Z,30.20
2023-01-23T23:16:33.544Z,33.17
2023-01-23T23:19:04.189Z,33.63
2023-01-23T23:21:36.238Z,33.07
2023-01-23T23:24:08.116Z,31.97
2023-01-23T23:26:36.980Z,31.53
2023-01-23T23:29:06.433Z,31.03
2023-01-23T23:31:35.117Z,30.23
2023-01-23T23:34:03.809Z,31.00
2023-01-23T23:36:32.442Z,29.80
2023-01-23T23:39:00.979Z,29.47
2023-01-23T23:41:30.936Z,28.93
2023-01-23T23:43:59.263Z,28.53
2023-01-23T23:46:27.738Z,26.43
2023-01-23T23:48:56.136Z,26.10
2023-01-23T23:51:26.669Z,24.80
2023-01-23T23:53:55.765Z,25.33
2023-01-23T23:56:27.512Z,29.73
2023-01-23T23:58:57.522Z,26.03
